createdAt,value
2022-10-07T00:00:31.494Z,1013.10
2022-10-07T00:01:31.517Z,1013.14
2022-10-07T00:02:31.535Z,1013.12
2022-10-07T00:03:31.521Z,1013.14
2022-10-07T00:04:32.316Z,1013.07
2022-10-07T00:05:31.494Z,1013.08
2022-10-07T00:06:32.565Z,1013.14
2022-10-07T00:07:31.519Z,1013.09
2022-10-07T00:08:31.515Z,1013.09
2022-10-07T00:09:31.411Z,1013.11
2022-10-07T00:10:31.477Z,1013.09
2022-10-07T00:11:31.401Z,1013.18
2022-10-07T00:12:31.407Z,1013.04
2022-10-07T00:13:31.378Z,1013.08
2022-10-07T00:14:31.382Z,1013.06
2022-10-07T00:15:31.935Z,1013.06
2022-10-07T00:16:32.399Z,1013.05
2022-10-07T00:17:31.546Z,1012.99
2022-10-07T00:18:31.474Z,1013.04
2022-10-07T00:19:31.360Z,1013.07
2022-10-07T00:20:31.339Z,1013.05
2022-10-07T00:21:31.374Z,1013.05
2022-10-07T00:22:31.299Z,1013.04
2022-10-07T00:23:31.278Z,1013.06
2022-10-07T00:24:31.288Z,1013.05
2022-10-07T00:25:31.286Z,1012.98
2022-10-07T00:26:31.287Z,1012.93
2022-10-07T00:27:31.268Z,1012.90
2022-10-07T00:28:31.327Z,1012.87
2022-10-07T00:29:31.278Z,1012.87
2022-10-07T00:30:31.345Z,1012.83
2022-10-07T00:31:31.277Z,1012.86
2022-10-07T00:32:31.294Z,1012.84
2022-10-07T00:33:31.211Z,1012.81
2022-10-07T00:34:31.397Z,1012.75
2022-10-07T00:35:31.775Z,1012.81
2022-10-07T00:36:32.064Z,1012.80
2022-10-07T00:37:31.255Z,1012.80
2022-10-07T00:38:31.286Z,1012.75
2022-10-07T00:39:31.189Z,1012.78
2022-10-07T00:40:31.217Z,1012.78
2022-10-07T00:41:31.676Z,1012.78
2022-10-07T00:42:31.206Z,1012.73
2022-10-07T00:43:33.683Z,1012.64
2022-10-07T00:44:34.153Z,1012.72
2022-10-07T00:45:31.212Z,1012.66
2022-10-07T00:46:31.182Z,1012.64
2022-10-07T00:47:31.174Z,1012.56
2022-10-07T00:48:31.226Z,1012.58
2022-10-07T00:49:31.167Z,1012.58
2022-10-07T00:50:31.154Z,1012.60
2022-10-07T00:51:31.082Z,1012.54
2022-10-07T00:52:33.576Z,1012.57
2022-10-07T00:53:31.144Z,1012.53
2022-10-07T00:54:31.835Z,1012.50
2022-10-07T00:55:31.060Z,1012.44
2022-10-07T00:56:31.132Z,1012.48
2022-10-07T00:57:31.887Z,1012.43
2022-10-07T00:58:31.803Z,1012.41
2022-10-07T00:59:31.649Z,1012.41
2022-10-07T01:00:31.042Z,1012.45
2022-10-07T01:01:32.088Z,1012.43
2022-10-07T01:02:31.096Z,1012.41
2022-10-07T01:03:32.238Z,1012.39
2022-10-07T01:04:31.049Z,1012.38
2022-10-07T01:05:31.056Z,1012.35
2022-10-07T01:06:31.058Z,1012.35
2022-10-07T01:07:30.993Z,1012.37
2022-10-07T01:08:31.008Z,1012.37
2022-10-07T01:09:31.011Z,1012.38
2022-10-07T01:10:30.957Z,1012.39
2022-10-07T01:11:30.995Z,1012.35
2022-10-07T01:12:30.991Z,1012.33
2022-10-07T01:13:31.654Z,1012.31
2022-10-07T01:14:30.943Z,1012.31
2022-10-07T01:15:30.939Z,1012.28
2022-10-07T01:16:30.994Z,1012.28
2022-10-07T01:17:30.899Z,1012.30
2022-10-07T01:18:30.891Z,1012.30
2022-10-07T01:19:30.898Z,1012.30
2022-10-07T01:20:30.882Z,1012.26
2022-10-07T01:21:31.577Z,1012.26
2022-10-07T01:22:30.875Z,1012.25
2022-10-07T01:23:30.896Z,1012.19
2022-10-07T01:24:30.972Z,1012.22
2022-10-07T01:25:30.922Z,1012.17
2022-10-07T01:26:30.900Z,1012.17
2022-10-07T01:27:30.937Z,1012.14
2022-10-07T01:28:30.992Z,1012.11
2022-10-07T01:29:30.899Z,1012.12
2022-10-07T01:30:30.927Z,1012.03
2022-10-07T01:31:30.827Z,1012.08
2022-10-07T01:32:30.917Z,1012.07
2022-10-07T01:33:30.776Z,1012.08
2022-10-07T01:34:32.073Z,1012.02
2022-10-07T01:35:30.802Z,1012.01
2022-10-07T01:36:30.793Z,1012.01
2022-10-07T01:37:30.806Z,1012.01
2022-10-07T01:38:30.781Z,1012.03
2022-10-07T01:39:30.815Z,1011.96
2022-10-07T01:40:31.573Z,1011.94
2022-10-07T01:41:30.781Z,1011.98
2022-10-07T01:42:30.734Z,1011.93
2022-10-07T01:43:30.805Z,1011.95
2022-10-07T01:44:30.722Z,1011.99
2022-10-07T02:02:15.557Z,1011.92
2022-10-07T02:03:15.530Z,1011.88
2022-10-07T02:04:15.504Z,1011.87
2022-10-07T02:05:16.575Z,1011.87
2022-10-07T02:06:16.649Z,1011.85
2022-10-07T02:07:16.591Z,1011.81
2022-10-07T02:08:17.614Z,1011.77
2022-10-07T02:09:16.590Z,1011.74
2022-10-07T02:10:17.532Z,1011.76
2022-10-07T02:11:16.578Z,1011.77
2022-10-07T02:12:16.608Z,1011.81
2022-10-07T02:13:16.566Z,1011.73
2022-10-07T02:14:16.543Z,1011.75
2022-10-07T02:15:48.560Z,1011.73
2022-10-07T02:16:16.517Z,1011.68
2022-10-07T02:17:16.523Z,1011.67
2022-10-07T02:18:16.481Z,1011.68
2022-10-07T02:19:17.998Z,1011.65
2022-10-07T02:20:17.276Z,1011.62
2022-10-07T02:21:16.507Z,1011.62
2022-10-07T02:22:16.529Z,1011.69
2022-10-07T02:23:16.513Z,1011.60
2022-10-07T02:24:16.491Z,1011.61
2022-10-07T02:25:17.084Z,1011.56
2022-10-07T02:26:16.497Z,1011.57
2022-10-07T02:27:16.529Z,1011.51
2022-10-07T02:28:16.670Z,1011.57
2022-10-07T02:29:16.433Z,1011.56
2022-10-07T02:30:17.130Z,1011.57
2022-10-07T02:31:16.481Z,1011.52
2022-10-07T02:32:16.458Z,1011.54
2022-10-07T02:33:16.476Z,1011.49
2022-10-07T02:34:19.933Z,1011.48
2022-10-07T02:35:17.366Z,1011.47
2022-10-07T02:36:16.388Z,1011.49
2022-10-07T02:37:16.400Z,1011.46
2022-10-07T02:38:16.376Z,1011.42
2022-10-07T02:39:16.376Z,1011.42
2022-10-07T02:40:17.018Z,1011.47
2022-10-07T02:41:16.350Z,1011.35
2022-10-07T02:42:16.394Z,1011.42
2022-10-07T02:43:16.357Z,1011.43
2022-10-07T02:44:16.322Z,1011.33
2022-10-07T02:45:16.345Z,1011.41
2022-10-07T02:46:16.375Z,1011.38
2022-10-07T02:47:16.366Z,1011.39
2022-10-07T02:48:16.309Z,1011.37
2022-10-07T02:49:16.347Z,1011.36
2022-10-07T02:50:16.270Z,1011.46
2022-10-07T02:51:20.669Z,1011.38
2022-10-07T02:52:17.272Z,1011.35
2022-10-07T02:53:16.276Z,1011.28
2022-10-07T02:54:16.312Z,1011.35
2022-10-07T02:55:16.524Z,1011.34
2022-10-07T02:56:17.349Z,1011.29
2022-10-07T02:57:16.323Z,1011.29
2022-10-07T02:58:16.281Z,1011.26
2022-10-07T02:59:16.245Z,1011.25
2022-10-07T03:00:16.285Z,1011.23
2022-10-07T03:01:16.275Z,1011.29
2022-10-07T03:02:16.281Z,1011.21
2022-10-07T03:03:16.744Z,1011.26
2022-10-07T03:04:16.223Z,1011.22
2022-10-07T03:05:16.526Z,1011.19
2022-10-07T03:06:16.249Z,1011.14
2022-10-07T03:07:16.161Z,1011.16
2022-10-07T03:08:16.170Z,1011.13
2022-10-07T03:09:16.195Z,1011.15
2022-10-07T03:10:16.148Z,1011.16
2022-10-07T03:11:16.098Z,1011.16
2022-10-07T03:12:16.123Z,1011.17
2022-10-07T03:13:16.148Z,1011.19
2022-10-07T03:14:16.079Z,1011.16
2022-10-07T03:15:16.180Z,1011.16
2022-10-07T03:16:16.194Z,1011.10
2022-10-07T03:17:16.133Z,1011.22
2022-10-07T03:18:16.029Z,1011.16
2022-10-07T03:19:16.059Z,1011.08
2022-10-07T03:20:16.006Z,1011.16
2022-10-07T03:21:16.120Z,1011.14
2022-10-07T03:22:16.050Z,1011.17
2022-10-07T03:23:16.038Z,1011.10
2022-10-07T03:24:16.067Z,1011.19
2022-10-07T03:25:16.027Z,1011.23
2022-10-07T03:26:16.029Z,1011.24
2022-10-07T03:27:15.954Z,1011.21
2022-10-07T03:28:16.047Z,1011.18
2022-10-07T03:29:16.023Z,1011.22
2022-10-07T03:30:21.142Z,1011.18
2022-10-07T03:31:18.438Z,1011.22
2022-10-07T03:32:16.816Z,1011.14
2022-10-07T03:33:15.951Z,1011.21
2022-10-07T03:34:15.977Z,1011.13
2022-10-07T03:35:17.518Z,1011.12
2022-10-07T03:36:15.975Z,1011.03
2022-10-07T03:37:17.590Z,1011.10
2022-10-07T03:38:15.932Z,1011.05
2022-10-07T03:39:15.909Z,1011.09
2022-10-07T03:40:16.156Z,1011.08
2022-10-07T03:41:16.709Z,1011.04
2022-10-07T03:42:17.112Z,1011.06
2022-10-07T03:43:16.943Z,1011.05
2022-10-07T03:44:17.254Z,1011.07
2022-10-07T03:45:16.749Z,1011.08
2022-10-07T03:46:16.740Z,1011.08
2022-10-07T04:02:29.974Z,1011.19
2022-10-07T04:03:29.736Z,1011.14
2022-10-07T04:04:29.794Z,1011.14
2022-10-07T04:05:30.887Z,1011.21
2022-10-07T04:06:32.089Z,1011.11
2022-10-07T04:07:30.871Z,1011.04
2022-10-07T04:08:32.686Z,1011.01
2022-10-07T04:09:31.905Z,1010.98
2022-10-07T04:10:31.569Z,1010.98
2022-10-07T04:11:30.861Z,1010.96
2022-10-07T04:12:33.871Z,1010.94
2022-10-07T04:13:30.865Z,1010.90
2022-10-07T04:14:30.862Z,1010.85
2022-10-07T04:15:30.850Z,1010.86
2022-10-07T04:16:34.715Z,1010.89
2022-10-07T04:17:31.785Z,1010.86
2022-10-07T04:18:31.145Z,1010.86
2022-10-07T04:19:30.971Z,1010.87
2022-10-07T04:20:30.824Z,1010.83
2022-10-07T04:21:30.792Z,1010.83
2022-10-07T04:22:30.767Z,1010.81
2022-10-07T04:23:30.790Z,1010.84
2022-10-07T04:24:30.852Z,1010.80
2022-10-07T04:25:34.294Z,1010.81
2022-10-07T04:26:30.755Z,1010.81
2022-10-07T04:27:50.657Z,1010.77
2022-10-07T04:28:32.831Z,1010.76
2022-10-07T04:29:36.638Z,1010.71
2022-10-07T04:30:32.939Z,1010.70
2022-10-07T04:31:32.866Z,1010.72
2022-10-07T04:32:31.855Z,1010.71
2022-10-07T04:33:30.780Z,1010.74
2022-10-07T04:34:30.771Z,1010.74
2022-10-07T04:35:31.302Z,1010.74
2022-10-07T04:36:30.768Z,1010.69
2022-10-07T04:37:32.296Z,1010.72
2022-10-07T04:38:31.308Z,1010.75
2022-10-07T04:39:56.050Z,1010.77
2022-10-07T04:40:32.711Z,1010.75
2022-10-07T04:41:30.715Z,1010.75
2022-10-07T04:42:31.328Z,1010.77
2022-10-07T04:43:30.765Z,1010.69
2022-10-07T04:44:30.673Z,1010.67
2022-10-07T04:45:30.681Z,1010.61
2022-10-07T04:46:31.557Z,1010.62
2022-10-07T04:47:30.670Z,1010.64
2022-10-07T04:48:34.827Z,1010.58
2022-10-07T04:49:30.751Z,1010.61
2022-10-07T04:50:31.318Z,1010.63
2022-10-07T04:51:31.303Z,1010.59
2022-10-07T04:52:31.302Z,1010.64
2022-10-07T04:53:31.388Z,1010.66
2022-10-07T04:54:31.796Z,1010.56
2022-10-07T04:55:30.574Z,1010.56
2022-10-07T04:56:31.607Z,1010.56
2022-10-07T04:57:31.795Z,1010.61
2022-10-07T04:58:31.108Z,1010.60
2022-10-07T04:59:31.729Z,1010.55
2022-10-07T05:00:31.623Z,1010.55
2022-10-07T05:01:31.375Z,1010.52
2022-10-07T05:02:32.114Z,1010.47
2022-10-07T05:03:30.514Z,1010.54
2022-10-07T05:04:31.547Z,1010.51
2022-10-07T05:05:30.526Z,1010.46
2022-10-07T05:06:30.453Z,1010.50
2022-10-07T05:07:30.451Z,1010.54
2022-10-07T05:08:30.536Z,1010.55
2022-10-07T05:09:30.455Z,1010.49
2022-10-07T05:10:30.482Z,1010.54
2022-10-07T05:11:32.399Z,1010.51
2022-10-07T05:12:32.315Z,1010.56
2022-10-07T05:13:30.495Z,1010.51
2022-10-07T05:14:30.393Z,1010.55
2022-10-07T05:15:30.417Z,1010.52
2022-10-07T05:16:30.452Z,1010.52
2022-10-07T05:17:30.485Z,1010.45
2022-10-07T05:18:30.348Z,1010.51
2022-10-07T05:19:30.408Z,1010.47
2022-10-07T05:20:30.327Z,1010.46
2022-10-07T05:21:30.332Z,1010.41
2022-10-07T05:22:31.140Z,1010.52
2022-10-07T05:23:30.799Z,1010.39
2022-10-07T05:24:30.321Z,1010.40
2022-10-07T05:25:30.279Z,1010.44
2022-10-07T05:26:30.347Z,1010.46
2022-10-07T05:27:30.338Z,1010.42
2022-10-07T05:28:30.887Z,1010.45
2022-10-07T05:29:30.297Z,1010.47
2022-10-07T05:30:30.303Z,1010.45
2022-10-07T05:31:30.432Z,1010.48
2022-10-07T05:32:30.279Z,1010.48
2022-10-07T05:33:30.798Z,1010.46
2022-10-07T05:34:30.235Z,1010.50
2022-10-07T05:35:30.251Z,1010.44
2022-10-07T05:36:30.266Z,1010.48
2022-10-07T05:37:30.250Z,1010.47
2022-10-07T05:38:30.244Z,1010.48
2022-10-07T05:39:30.254Z,1010.44
2022-10-07T05:40:30.302Z,1010.46
2022-10-07T05:41:30.800Z,1010.46
2022-10-07T05:42:30.250Z,1010.45
2022-10-07T05:43:30.199Z,1010.50
2022-10-07T05:44:30.305Z,1010.39
2022-10-07T05:45:30.217Z,1010.40
2022-10-07T05:46:30.266Z,1010.41
2022-10-07T05:47:30.799Z,1010.41
2022-10-07T05:48:30.104Z,1010.37
2022-10-07T05:49:30.235Z,1010.34
2022-10-07T05:50:30.140Z,1010.30
2022-10-07T05:51:30.191Z,1010.38
2022-10-07T05:52:30.115Z,1010.35
2022-10-07T05:53:30.147Z,1010.39
2022-10-07T05:54:30.179Z,1010.35
2022-10-07T05:55:30.079Z,1010.36
2022-10-07T05:56:30.044Z,1010.29
2022-10-07T05:57:30.092Z,1010.25
2022-10-07T05:58:30.215Z,1010.25
2022-10-07T05:59:30.018Z,1010.27
2022-10-07T06:00:30.167Z,1010.24
2022-10-07T06:01:30.102Z,1010.23
2022-10-07T06:02:30.139Z,1010.28
2022-10-07T06:03:30.026Z,1010.26
2022-10-07T06:04:30.033Z,1010.22
2022-10-07T06:05:30.040Z,1010.18
2022-10-07T06:06:30.051Z,1010.21
2022-10-07T06:07:29.991Z,1010.22
2022-10-07T06:08:30.805Z,1010.30
2022-10-07T06:09:30.631Z,1010.26
2022-10-07T06:10:30.819Z,1010.24
2022-10-07T06:11:30.586Z,1010.20
2022-10-07T06:12:33.863Z,1010.24
2022-10-07T06:13:29.961Z,1010.24
2022-10-07T06:14:31.299Z,1010.17
2022-10-07T06:15:32.105Z,1010.20
2022-10-07T06:16:31.366Z,1010.18
2022-10-07T06:17:30.583Z,1010.18
2022-10-07T06:18:30.619Z,1010.16
2022-10-07T06:19:30.560Z,1010.24
2022-10-07T06:20:31.814Z,1010.20
2022-10-07T06:21:29.989Z,1010.18
2022-10-07T06:22:30.599Z,1010.16
2022-10-07T06:23:29.974Z,1010.20
2022-10-07T06:24:30.624Z,1010.22
2022-10-07T06:25:30.078Z,1010.16
2022-10-07T06:26:29.853Z,1010.19
2022-10-07T06:27:29.767Z,1010.22
2022-10-07T06:28:31.341Z,1010.23
2022-10-07T06:29:30.830Z,1010.20
2022-10-07T06:30:29.831Z,1010.28
2022-10-07T06:31:29.754Z,1010.26
2022-10-07T06:32:30.433Z,1010.26
2022-10-07T06:33:31.584Z,1010.28
2022-10-07T06:34:29.786Z,1010.25
2022-10-07T06:35:29.764Z,1010.23
2022-10-07T06:36:29.814Z,1010.21
2022-10-07T06:37:30.632Z,1010.18
2022-10-07T06:38:30.628Z,1010.28
2022-10-07T06:39:29.831Z,1010.23
2022-10-07T06:40:29.896Z,1010.17
2022-10-07T06:41:30.869Z,1010.17
2022-10-07T06:42:29.884Z,1010.19
2022-10-07T06:43:29.770Z,1010.20
2022-10-07T06:44:30.359Z,1010.21
2022-10-07T06:45:30.308Z,1010.21
2022-10-07T06:46:30.563Z,1010.12
2022-10-07T06:47:30.678Z,1010.20
2022-10-07T06:48:31.809Z,1010.20
2022-10-07T06:49:30.615Z,1010.20
2022-10-07T06:50:31.069Z,1010.19
2022-10-07T06:51:29.715Z,1010.22
2022-10-07T06:52:31.591Z,1010.15
2022-10-07T06:53:29.545Z,1010.18
2022-10-07T06:54:34.319Z,1010.15
2022-10-07T06:55:29.591Z,1010.12
2022-10-07T06:56:30.527Z,1010.14
2022-10-07T06:57:46.189Z,1010.12
2022-10-07T06:58:33.425Z,1010.11
2022-10-07T06:59:29.590Z,1010.11
2022-10-07T07:00:29.633Z,1010.18
2022-10-07T07:01:29.695Z,1010.14
2022-10-07T07:02:31.360Z,1010.19
2022-10-07T07:03:30.470Z,1010.16
2022-10-07T07:04:29.556Z,1010.13
2022-10-07T07:05:29.480Z,1010.13
2022-10-07T07:06:32.339Z,1010.16
2022-10-07T07:07:30.766Z,1010.20
2022-10-07T07:08:30.468Z,1010.23
2022-10-07T07:09:29.542Z,1010.18
2022-10-07T07:10:29.546Z,1010.11
2022-10-07T07:11:31.811Z,1010.17
2022-10-07T07:12:29.446Z,1010.11
2022-10-07T07:13:31.405Z,1010.12
2022-10-07T07:14:29.546Z,1010.10
2022-10-07T07:15:29.540Z,1010.16
2022-10-07T07:16:29.575Z,1010.15
2022-10-07T07:17:29.500Z,1010.10
2022-10-07T07:18:44.416Z,1010.12
2022-10-07T07:19:29.459Z,1010.15
2022-10-07T07:20:29.584Z,1010.11
2022-10-07T07:21:29.424Z,1010.11
2022-10-07T07:22:29.483Z,1010.12
2022-10-07T07:23:29.435Z,1010.04
2022-10-07T07:24:30.676Z,1010.11
2022-10-07T07:25:30.315Z,1010.06
2022-10-07T07:26:30.175Z,1009.96
2022-10-07T07:27:30.329Z,1009.97
2022-10-07T07:28:29.402Z,1010.00
2022-10-07T07:29:29.371Z,1009.98
2022-10-07T07:30:29.843Z,1009.93
2022-10-07T07:31:29.477Z,1009.99
2022-10-07T07:32:29.425Z,1009.89
2022-10-07T07:34:01.766Z,1009.88
2022-10-07T07:34:29.275Z,1009.86
2022-10-07T07:35:29.280Z,1009.90
2022-10-07T07:36:29.347Z,1009.89
2022-10-07T07:37:29.359Z,1009.93
2022-10-07T07:38:29.317Z,1009.82
2022-10-07T07:39:29.244Z,1009.85
2022-10-07T07:40:29.243Z,1009.83
2022-10-07T07:41:29.220Z,1009.83
2022-10-07T07:42:29.433Z,1009.90
2022-10-07T07:43:29.220Z,1009.84
2022-10-07T07:44:33.968Z,1009.88
2022-10-07T07:45:31.387Z,1009.81
2022-10-07T07:46:30.355Z,1009.77
2022-10-07T07:47:30.853Z,1009.75
2022-10-07T07:48:29.908Z,1009.69
2022-10-07T07:49:30.092Z,1009.69
2022-10-07T07:50:30.058Z,1009.70
2022-10-07T07:51:30.072Z,1009.62
2022-10-07T07:52:29.886Z,1009.67
2022-10-07T07:53:30.057Z,1009.60
2022-10-07T07:54:30.354Z,1009.58
2022-10-07T07:55:29.653Z,1009.55
2022-10-07T07:56:32.093Z,1009.60
2022-10-07T07:57:29.962Z,1009.60
2022-10-07T07:58:29.222Z,1009.54
2022-10-07T07:59:29.459Z,1009.51
2022-10-07T08:00:29.504Z,1009.51
2022-10-07T08:01:31.197Z,1009.55
2022-10-07T08:02:30.167Z,1009.48
2022-10-07T08:03:29.184Z,1009.54
2022-10-07T08:04:29.245Z,1009.56
2022-10-07T08:05:29.148Z,1009.49
2022-10-07T08:06:29.869Z,1009.52
2022-10-07T08:07:29.036Z,1009.58
2022-10-07T08:08:29.069Z,1009.49
2022-10-07T08:09:29.031Z,1009.46
2022-10-07T08:10:29.016Z,1009.48
2022-10-07T08:11:29.003Z,1009.47
2022-10-07T08:12:30.093Z,1009.43
2022-10-07T08:13:29.710Z,1009.40
2022-10-07T08:14:28.979Z,1009.40
2022-10-07T08:16:02.555Z,1009.32
2022-10-07T08:16:28.899Z,1009.37
2022-10-07T08:17:28.926Z,1009.31
2022-10-07T08:18:28.899Z,1009.33
2022-10-07T08:19:28.911Z,1009.30
2022-10-07T08:20:28.960Z,1009.29
2022-10-07T08:21:28.939Z,1009.24
2022-10-07T08:22:28.903Z,1009.29
2022-10-07T08:23:28.966Z,1009.29
2022-10-07T08:24:28.881Z,1009.21
2022-10-07T08:25:28.855Z,1009.19
2022-10-07T08:26:28.894Z,1009.26
2022-10-07T08:27:28.842Z,1009.14
2022-10-07T08:28:28.924Z,1009.14
2022-10-07T08:29:29.467Z,1009.10
2022-10-07T08:30:28.820Z,1009.08
2022-10-07T08:31:28.900Z,1009.04
2022-10-07T08:32:28.815Z,1009.02
2022-10-07T08:33:28.814Z,1009.00
2022-10-07T08:34:28.819Z,1008.93
2022-10-07T08:35:28.780Z,1008.95
2022-10-07T08:36:28.815Z,1008.90
2022-10-07T08:37:28.767Z,1008.88
2022-10-07T08:38:28.742Z,1008.85
2022-10-07T08:39:28.747Z,1008.81
2022-10-07T08:40:28.762Z,1008.76
2022-10-07T08:41:28.752Z,1008.76
2022-10-07T08:42:28.714Z,1008.68
2022-10-07T08:43:28.752Z,1008.65
2022-10-07T08:44:28.703Z,1008.57
2022-10-07T08:45:28.693Z,1008.63
2022-10-07T08:46:28.752Z,1008.58
2022-10-07T08:47:28.748Z,1008.53
2022-10-07T08:48:28.749Z,1008.45
2022-10-07T08:49:28.636Z,1008.51
2022-10-07T08:50:28.650Z,1008.43
2022-10-07T08:51:28.654Z,1008.39
2022-10-07T08:52:28.664Z,1008.33
2022-10-07T08:53:28.632Z,1008.31
2022-10-07T08:54:28.653Z,1008.25
2022-10-07T08:55:28.650Z,1008.24
2022-10-07T08:56:28.660Z,1008.19
2022-10-07T08:57:28.584Z,1008.13
2022-10-07T08:58:28.613Z,1008.09
2022-10-07T08:59:28.610Z,1008.09
2022-10-07T09:00:28.635Z,1008.00
2022-10-07T09:01:28.667Z,1007.92
2022-10-07T09:02:28.657Z,1007.93
2022-10-07T09:03:28.665Z,1007.90
2022-10-07T09:04:28.551Z,1007.85
2022-10-07T09:05:28.547Z,1007.89
2022-10-07T09:06:29.086Z,1007.79
2022-10-07T09:07:28.554Z,1007.77
2022-10-07T09:08:28.593Z,1007.62
2022-10-07T09:09:28.551Z,1007.63
2022-10-07T09:10:28.552Z,1007.64
2022-10-07T09:11:28.586Z,1007.53
2022-10-07T09:12:28.537Z,1007.47
2022-10-07T09:13:28.516Z,1007.43
2022-10-07T09:14:28.554Z,1007.46
2022-10-07T09:15:29.139Z,1007.41
2022-10-07T09:16:28.486Z,1007.37
2022-10-07T09:17:32.853Z,1007.33
2022-10-07T09:18:30.490Z,1007.34
2022-10-07T09:19:28.447Z,1007.28
2022-10-07T09:20:28.468Z,1007.20
2022-10-07T09:21:28.453Z,1007.21
2022-10-07T09:22:28.489Z,1007.22
2022-10-07T09:23:28.461Z,1007.09
2022-10-07T09:24:28.445Z,1007.11
2022-10-07T09:25:28.437Z,1007.10
2022-10-07T09:26:28.431Z,1007.15
2022-10-07T09:27:28.460Z,1007.05
2022-10-07T09:28:28.428Z,1007.04
2022-10-07T09:29:28.412Z,1007.06
2022-10-07T09:30:28.353Z,1006.96
2022-10-07T09:31:28.491Z,1006.97
2022-10-07T09:32:28.400Z,1006.94
2022-10-07T09:33:28.313Z,1006.96
2022-10-07T09:34:28.347Z,1006.96
2022-10-07T09:35:28.322Z,1007.00
2022-10-07T09:36:28.326Z,1006.97
2022-10-07T09:37:28.316Z,1006.90
2022-10-07T09:38:28.352Z,1006.89
2022-10-07T09:39:28.399Z,1006.83
2022-10-07T09:41:00.687Z,1006.85
2022-10-07T09:41:31.154Z,1006.81
2022-10-07T09:44:27.050Z,1006.81
2022-10-07T09:45:27.065Z,1006.79
2022-10-07T09:46:28.310Z,1006.76
2022-10-07T09:47:28.235Z,1006.71
2022-10-07T09:48:28.173Z,1006.72
2022-10-07T09:49:28.249Z,1006.69
2022-10-07T09:50:28.251Z,1006.68
2022-10-07T09:52:00.626Z,1006.67
2022-10-07T09:52:28.217Z,1006.65
2022-10-07T09:53:28.143Z,1006.62
2022-10-07T09:54:28.186Z,1006.63
2022-10-07T09:55:28.223Z,1006.63
2022-10-07T09:56:28.190Z,1006.60
2022-10-07T09:57:28.136Z,1006.56
2022-10-07T09:58:28.178Z,1006.61
2022-10-07T09:59:28.153Z,1006.59
2022-10-07T10:00:28.155Z,1006.59
2022-10-07T10:01:28.115Z,1006.55
2022-10-07T10:02:28.219Z,1006.45
2022-10-07T10:03:28.217Z,1006.47
2022-10-07T10:04:28.114Z,1006.53
2022-10-07T10:05:28.113Z,1006.49
2022-10-07T10:06:28.079Z,1006.46
2022-10-07T10:07:29.106Z,1006.50
2022-10-07T10:08:28.128Z,1006.47
2022-10-07T10:09:28.050Z,1006.44
2022-10-07T10:10:28.010Z,1006.47
2022-10-07T10:11:27.994Z,1006.44
2022-10-07T10:12:28.061Z,1006.52
2022-10-07T10:13:27.987Z,1006.34
2022-10-07T10:14:28.611Z,1006.45
2022-10-07T10:15:27.992Z,1006.40
2022-10-07T10:16:28.049Z,1006.36
2022-10-07T10:17:27.961Z,1006.35
2022-10-07T10:18:28.011Z,1006.38
2022-10-07T10:19:28.006Z,1006.37
2022-10-07T10:20:27.928Z,1006.30
2022-10-07T10:21:27.917Z,1006.31
2022-10-07T10:22:27.919Z,1006.29
2022-10-07T10:23:27.901Z,1006.27
2022-10-07T10:24:27.918Z,1006.24
2022-10-07T10:25:27.925Z,1006.25
2022-10-07T10:26:32.754Z,1006.21
2022-10-07T10:27:29.892Z,1006.11
2022-10-07T10:28:27.937Z,1006.16
2022-10-07T10:29:27.873Z,1006.17
2022-10-07T10:30:27.902Z,1006.20
2022-10-07T10:31:27.929Z,1006.17
2022-10-07T10:32:27.867Z,1006.09
2022-10-07T10:33:27.810Z,1006.13
2022-10-07T10:34:27.873Z,1006.14
2022-10-07T10:35:28.597Z,1006.02
2022-10-07T10:36:27.846Z,1006.07
2022-10-07T10:37:27.789Z,1006.10
2022-10-07T10:38:27.791Z,1006.11
2022-10-07T10:39:27.861Z,1006.11
2022-10-07T10:40:27.803Z,1006.02
2022-10-07T10:41:27.784Z,1006.00
2022-10-07T10:42:27.790Z,1006.05
2022-10-07T10:43:27.835Z,1006.01
2022-10-07T10:44:27.774Z,1005.99
2022-10-07T10:45:27.785Z,1005.98
2022-10-07T10:46:27.874Z,1005.94
2022-10-07T10:47:27.781Z,1005.92
2022-10-07T10:48:27.720Z,1005.94
2022-10-07T10:49:28.688Z,1005.87
2022-10-07T10:50:27.730Z,1005.90
2022-10-07T10:51:27.723Z,1005.86
2022-10-07T10:52:27.699Z,1005.83
2022-10-07T10:53:27.701Z,1005.89
2022-10-07T10:54:27.758Z,1005.82
2022-10-07T10:55:27.637Z,1005.80
2022-10-07T10:56:27.683Z,1005.76
2022-10-07T10:57:27.678Z,1005.71
2022-10-07T10:58:27.617Z,1005.74
2022-10-07T10:59:27.627Z,1005.68
2022-10-07T11:00:27.627Z,1005.70
2022-10-07T11:01:27.674Z,1005.72
2022-10-07T11:02:27.695Z,1005.66
2022-10-07T11:03:27.609Z,1005.62
2022-10-07T11:04:28.325Z,1005.55
2022-10-07T11:05:27.631Z,1005.54
2022-10-07T11:06:27.604Z,1005.61
2022-10-07T11:07:27.572Z,1005.57
2022-10-07T11:08:27.780Z,1005.52
2022-10-07T11:09:30.605Z,1005.55
2022-10-07T11:10:28.556Z,1005.50
2022-10-07T11:11:28.320Z,1005.49
2022-10-07T11:12:27.518Z,1005.44
2022-10-07T11:13:27.522Z,1005.52
2022-10-07T11:14:27.520Z,1005.50
2022-10-07T11:15:27.528Z,1005.47
2022-10-07T11:16:27.529Z,1005.43
2022-10-07T11:17:28.510Z,1005.48
2022-10-07T11:18:28.115Z,1005.42
2022-10-07T11:19:27.486Z,1005.36
2022-10-07T11:20:27.460Z,1005.36
2022-10-07T11:21:27.461Z,1005.37
2022-10-07T11:22:27.464Z,1005.40
2022-10-07T11:23:27.404Z,1005.34
2022-10-07T11:24:27.487Z,1005.30
2022-10-07T11:25:27.480Z,1005.32
2022-10-07T11:26:33.782Z,1005.32
2022-10-07T11:27:29.401Z,1005.24
2022-10-07T11:28:27.443Z,1005.28
2022-10-07T11:29:27.421Z,1005.19
2022-10-07T11:30:27.364Z,1005.22
2022-10-07T11:31:27.475Z,1005.21
2022-10-07T11:32:27.433Z,1005.21
2022-10-07T11:33:27.356Z,1005.22
2022-10-07T11:34:27.376Z,1005.20
2022-10-07T11:35:27.367Z,1005.13
2022-10-07T11:36:27.333Z,1005.10
2022-10-07T11:37:27.336Z,1005.08
2022-10-07T11:38:27.398Z,1005.00
2022-10-07T11:39:27.315Z,1005.06
2022-10-07T11:40:29.143Z,1005.04
2022-10-07T11:41:28.305Z,1004.96
2022-10-07T11:42:27.285Z,1004.96
2022-10-07T11:43:27.408Z,1004.96
2022-10-07T11:44:27.311Z,1005.01
2022-10-07T11:45:27.370Z,1004.95
2022-10-07T11:46:27.286Z,1004.91
2022-10-07T11:47:27.362Z,1004.91
2022-10-07T11:48:27.242Z,1004.92
2022-10-07T11:49:27.260Z,1004.88
2022-10-07T11:50:27.287Z,1004.85
2022-10-07T11:51:27.243Z,1004.85
2022-10-07T11:52:27.263Z,1004.83
2022-10-07T11:53:27.280Z,1004.81
2022-10-07T11:54:28.241Z,1004.75
2022-10-07T11:55:27.185Z,1004.78
2022-10-07T11:56:27.276Z,1004.78
2022-10-07T11:57:27.330Z,1004.71
2022-10-07T11:58:27.220Z,1004.73
2022-10-07T11:59:27.238Z,1004.69
2022-10-07T12:00:27.206Z,1004.73
2022-10-07T12:01:27.254Z,1004.71
2022-10-07T12:02:27.211Z,1004.69
2022-10-07T12:03:27.209Z,1004.66
2022-10-07T12:04:27.662Z,1004.63
2022-10-07T12:05:27.171Z,1004.54
2022-10-07T12:06:27.108Z,1004.56
2022-10-07T12:07:27.197Z,1004.51
2022-10-07T12:08:27.800Z,1004.54
2022-10-07T12:09:27.078Z,1004.53
2022-10-07T12:10:27.090Z,1004.46
2022-10-07T12:11:27.953Z,1004.51
2022-10-07T12:12:27.021Z,1004.43
2022-10-07T12:13:27.026Z,1004.45
2022-10-07T12:14:27.031Z,1004.40
2022-10-07T12:15:27.057Z,1004.32
2022-10-07T12:16:27.081Z,1004.34
2022-10-07T12:17:27.036Z,1004.30
2022-10-07T12:18:27.048Z,1004.26
2022-10-07T12:19:27.061Z,1004.33
2022-10-07T12:20:26.981Z,1004.22
2022-10-07T12:21:27.015Z,1004.17
2022-10-07T12:22:26.994Z,1004.21
2022-10-07T12:23:26.981Z,1004.18
2022-10-07T12:24:26.987Z,1004.17
2022-10-07T12:25:26.977Z,1004.15
2022-10-07T12:26:26.909Z,1004.15
2022-10-07T12:27:27.003Z,1004.11
2022-10-07T12:28:27.042Z,1004.03
2022-10-07T12:29:26.900Z,1004.07
2022-10-07T12:30:26.940Z,1004.05
2022-10-07T12:31:26.944Z,1003.99
2022-10-07T12:32:26.905Z,1004.00
2022-10-07T12:33:26.926Z,1004.06
2022-10-07T12:34:26.864Z,1004.00
2022-10-07T12:35:27.921Z,1003.99
2022-10-07T12:36:26.885Z,1003.99
2022-10-07T12:37:26.869Z,1003.94
2022-10-07T12:38:26.864Z,1003.94
2022-10-07T12:39:26.858Z,1004.00